Time;durP1;ratioP1;P1;durP2;ratioP2;P2;SDS_P1;SDS_P2;PMS_P1;PMS_P2;Temp;Humidity;BMP_temperature;BMP_pressure;BME280_temperature;BME280_humidity;BME280_pressure;Samples;Min_cycle;Max_cycle;Signal;HPM_P1;HPM_P2
2022/03/16 00:02:04;;;;;;;19.30;8.55;;;;;;;;;;5095069;28;20020;-71
2022/03/16 00:04:31;;;;;;;16.50;8.63;;;;;;;;;;5094890;28;20421;-71
2022/03/16 00:06:57;;;;;;;13.60;8.00;;;;;;;;;;5094448;28;20020;-71
2022/03/16 00:09:23;;;;;;;18.13;8.73;;;;;;;;;;5094919;28;20058;-71
2022/03/16 00:11:50;;;;;;;13.10;7.32;;;;;;;;;;5094819;28;20016;-71
2022/03/16 00:14:16;;;;;;;15.50;9.13;;;;;;;;;;5076019;28;20032;-71
2022/03/16 00:16:42;;;;;;;19.70;10.77;;;;;;;;;;5094719;28;20035;-71
2022/03/16 00:19:08;;;;;;;21.88;10.98;;;;;;;;;;5076449;28;20206;-71
2022/03/16 00:21:34;;;;;;;16.40;9.45;;;;;;;;;;5094149;28;20504;-71
2022/03/16 00:24:01;;;;;;;18.60;9.70;;;;;;;;;;5094695;28;20349;-71
2022/03/16 00:26:27;;;;;;;17.08;8.05;;;;;;;;;;5094576;28;20028;-72
2022/03/16 00:28:54;;;;;;;38.75;16.92;;;;;;;;;;5094078;28;20384;-72
2022/03/16 00:31:20;;;;;;;23.23;10.98;;;;;;;;;;5094633;28;20020;-72
2022/03/16 00:33:47;;;;;;;20.45;10.48;;;;;;;;;;5072778;28;20389;-72
2022/03/16 00:36:13;;;;;;;21.08;9.90;;;;;;;;;;5073751;28;20366;-72
2022/03/16 00:38:39;;;;;;;17.13;9.85;;;;;;;;;;5073977;28;20027;-72
2022/03/16 00:41:07;;;;;;;16.27;8.68;;;;;;;;;;5073840;28;20349;-72
2022/03/16 00:43:34;;;;;;;15.02;7.57;;;;;;;;;;5073447;28;20024;-72
2022/03/16 00:46:01;;;;;;;16.52;7.80;;;;;;;;;;5072565;28;20103;-72
2022/03/16 00:48:27;;;;;;;19.60;9.52;;;;;;;;;;5073420;28;20044;-72
2022/03/16 00:50:53;;;;;;;17.55;9.88;;;;;;;;;;5073788;28;20020;-72
2022/03/16 00:53:19;;;;;;;27.35;12.77;;;;;;;;;;5072506;28;20052;-72
2022/03/16 00:55:45;;;;;;;19.33;11.13;;;;;;;;;;5073380;28;20108;-72
2022/03/16 00:58:11;;;;;;;24.13;11.95;;;;;;;;;;5073667;28;20017;-72
2022/03/16 01:00:38;;;;;;;57.78;18.33;;;;;;;;;;5073626;28;20024;-71
2022/03/16 01:03:04;;;;;;;36.00;16.33;;;;;;;;;;5073248;28;20384;-71
2022/03/16 01:05:30;;;;;;;38.63;16.38;;;;;;;;;;5073778;28;20025;-71
2022/03/16 01:07:56;;;;;;;32.88;13.52;;;;;;;;;;5073495;28;20028;-71
2022/03/16 01:10:22;;;;;;;27.85;12.68;;;;;;;;;;5073169;28;20477;-71
2022/03/16 01:12:49;;;;;;;24.10;11.25;;;;;;;;;;5072220;28;20024;-71
2022/03/16 01:15:15;;;;;;;53.03;18.05;;;;;;;;;;5073473;28;20041;-72
2022/03/16 01:17:41;;;;;;;42.45;15.98;;;;;;;;;;5073203;28;20469;-72
2022/03/16 01:20:08;;;;;;;33.92;13.32;;;;;;;;;;5073435;28;20384;-71
2022/03/16 01:22:34;;;;;;;23.83;10.93;;;;;;;;;;5072055;28;20021;-71
2022/03/16 01:25:00;;;;;;;17.30;8.93;;;;;;;;;;5071743;28;20480;-71
2022/03/16 01:27:26;;;;;;;16.48;8.20;;;;;;;;;;5072003;28;20039;-71
2022/03/16 01:29:53;;;;;;;24.42;9.70;;;;;;;;;;5073259;28;20408;-71
2022/03/16 01:32:19;;;;;;;20.50;9.77;;;;;;;;;;5072892;28;20032;-71
2022/03/16 01:34:45;;;;;;;16.85;8.55;;;;;;;;;;5086203;28;20052;-72
2022/03/16 01:37:11;;;;;;;20.67;9.30;;;;;;;;;;5074835;28;20055;-71
2022/03/16 01:39:38;;;;;;;16.23;9.02;;;;;;;;;;5093671;28;20024;-72
2022/03/16 01:42:04;;;;;;;12.95;7.35;;;;;;;;;;5093397;28;20030;-71
2022/03/16 01:44:50;;;;;;;13.40;6.85;;;;;;;;;;5092914;28;20028;-72
2022/03/16 01:47:18;;;;;;;12.30;7.00;;;;;;;;;;5093143;28;20032;-72
2022/03/16 01:49:45;;;;;;;11.73;7.40;;;;;;;;;;5093264;28;20032;-71
2022/03/16 01:52:11;;;;;;;12.52;6.90;;;;;;;;;;5075241;28;20103;-71
2022/03/16 01:54:41;;;;;;;10.77;6.00;;;;;;;;;;5093211;28;20036;-72
2022/03/16 01:57:11;;;;;;;10.38;5.88;;;;;;;;;;5096711;28;20024;-72
2022/03/16 01:59:38;;;;;;;12.45;5.90;;;;;;;;;;5096873;28;20071;-72
2022/03/16 02:02:05;;;;;;;13.02;6.78;;;;;;;;;;5097449;28;20020;-72
2022/03/16 02:04:32;;;;;;;12.07;6.32;;;;;;;;;;5097479;28;20502;-71
2022/03/16 02:06:58;;;;;;;12.23;6.85;;;;;;;;;;5096864;28;20384;-71
2022/03/16 02:09:25;;;;;;;15.77;5.93;;;;;;;;;;5097207;28;20453;-71
2022/03/16 02:11:51;;;;;;;11.10;5.72;;;;;;;;;;5097280;28;20417;-72
2022/03/16 02:14:18;;;;;;;11.90;5.57;;;;;;;;;;5078396;28;20398;-71
2022/03/16 02:16:48;;;;;;;11.25;5.03;;;;;;;;;;5097115;28;20027;-71
2022/03/16 02:19:15;;;;;;;12.25;6.10;;;;;;;;;;5097271;28;20016;-72
2022/03/16 02:21:42;;;;;;;12.68;5.97;;;;;;;;;;5096528;28;20029;-72
2022/03/16 02:24:09;;;;;;;12.57;6.22;;;;;;;;;;5078663;28;20079;-72
2022/03/16 02:26:35;;;;;;;14.70;6.13;;;;;;;;;;5078324;28;20024;-72
2022/03/16 02:29:01;;;;;;;13.73;7.22;;;;;;;;;;5078581;28;20464;-72
2022/03/16 02:31:28;;;;;;;18.55;7.07;;;;;;;;;;5096783;28;20031;-72
2022/03/16 02:33:54;;;;;;;11.07;6.15;;;;;;;;;;5096276;28;20044;-72
2022/03/16 02:36:20;;;;;;;16.60;7.47;;;;;;;;;;5078460;28;20024;-72
2022/03/16 02:38:46;;;;;;;12.23;6.75;;;;;;;;;;5096616;28;20024;-72
2022/03/16 02:41:13;;;;;;;20.75;10.38;;;;;;;;;;5077993;28;20486;-72
2022/03/16 02:43:39;;;;;;;18.45;8.85;;;;;;;;;;5096548;28;20096;-72
2022/03/16 02:46:06;;;;;;;19.95;9.75;;;;;;;;;;5096479;28;20028;-72
2022/03/16 02:48:32;;;;;;;21.95;8.40;;;;;;;;;;5096062;28;20023;-72
2022/03/16 02:50:58;;;;;;;17.58;8.88;;;;;;;;;;5078136;28;20028;-72
2022/03/16 02:53:24;;;;;;;20.33;9.48;;;;;;;;;;5078129;28;20024;-72
2022/03/16 02:55:51;;;;;;;15.40;7.65;;;;;;;;;;5096116;28;20082;-72
2022/03/16 02:58:18;;;;;;;15.93;7.30;;;;;;;;;;5096562;28;20027;-72
2022/03/16 03:00:45;;;;;;;11.77;6.68;;;;;;;;;;5077986;28;20123;-73
2022/03/16 03:03:11;;;;;;;12.25;7.10;;;;;;;;;;5095766;28;20094;-72
2022/03/16 03:05:38;;;;;;;11.93;6.45;;;;;;;;;;5077954;28;20185;-72
2022/03/16 03:08:04;;;;;;;11.57;5.72;;;;;;;;;;5095591;28;20026;-72
2022/03/16 03:10:31;;;;;;;11.27;6.28;;;;;;;;;;5077532;28;20108;-72
2022/03/16 03:12:57;;;;;;;13.40;7.40;;;;;;;;;;5095923;28;20148;-72
2022/03/16 03:15:23;;;;;;;12.35;6.82;;;;;;;;;;5095776;28;20096;-72
2022/03/16 03:17:49;;;;;;;15.68;8.30;;;;;;;;;;5077278;28;20099;-72
2022/03/16 03:20:16;;;;;;;12.65;8.18;;;;;;;;;;5077612;28;20070;-72
2022/03/16 03:22:42;;;;;;;15.13;8.60;;;;;;;;;;5095318;28;20024;-72
2022/03/16 03:25:12;;;;;;;13.10;7.20;;;;;;;;;;5096099;28;20024;-72
2022/03/16 03:27:38;;;;;;;15.65;8.07;;;;;;;;;;5095676;28;20016;-73
2022/03/16 03:30:06;;;;;;;15.80;8.38;;;;;;;;;;5095346;28;20032;-72
2022/03/16 03:32:32;;;;;;;11.80;7.03;;;;;;;;;;5095529;28;20024;-72
2022/03/16 03:34:58;;;;;;;18.27;7.40;;;;;;;;;;5095300;28;20052;-72
2022/03/16 03:37:29;;;;;;;13.38;5.93;;;;;;;;;;5095332;28;20476;-72
2022/03/16 03:39:56;;;;;;;13.43;7.32;;;;;;;;;;5095496;28;20039;-72
2022/03/16 03:42:22;;;;;;;10.20;5.60;;;;;;;;;;5077205;28;20024;-72
2022/03/16 03:44:48;;;;;;;12.45;6.32;;;;;;;;;;5094947;28;20042;-72
2022/03/16 03:47:14;;;;;;;12.60;6.30;;;;;;;;;;5095300;28;20024;-73
2022/03/16 03:49:42;;;;;;;15.13;7.28;;;;;;;;;;5095227;28;20365;-72
2022/03/16 03:52:09;;;;;;;16.13;8.25;;;;;;;;;;5094807;28;20092;-72
2022/03/16 03:54:35;;;;;;;14.63;7.60;;;;;;;;;;5095048;28;20032;-72
2022/03/16 03:57:01;;;;;;;15.50;7.53;;;;;;;;;;5095070;28;20027;-72
2022/03/16 03:59:27;;;;;;;15.68;8.77;;;;;;;;;;5094658;28;20093;-72
2022/03/16 04:01:54;;;;;;;13.18;6.88;;;;;;;;;;5095237;28;20016;-72
2022/03/16 04:04:20;;;;;;;19.38;6.60;;;;;;;;;;5094912;28;20384;-72
2022/03/16 04:06:46;;;;;;;13.80;7.30;;;;;;;;;;5094552;28;20035;-72
2022/03/16 04:09:12;;;;;;;11.63;6.45;;;;;;;;;;5094855;28;20028;-71
2022/03/16 04:11:39;;;;;;;15.35;7.68;;;;;;;;;;5094996;28;20099;-71
2022/03/16 04:14:05;;;;;;;15.50;7.47;;;;;;;;;;5094326;28;20099;-72
2022/03/16 04:16:31;;;;;;;14.10;7.75;;;;;;;;;;5095006;28;20039;-72
2022/03/16 04:18:58;;;;;;;13.90;7.93;;;;;;;;;;5093514;28;20024;-71
2022/03/16 04:21:24;;;;;;;16.30;9.07;;;;;;;;;;5076504;28;20024;-72
2022/03/16 04:23:50;;;;;;;23.38;10.85;;;;;;;;;;5076608;28;20074;-72
2022/03/16 04:26:17;;;;;;;19.42;10.60;;;;;;;;;;5075996;28;20107;-71
2022/03/16 04:28:43;;;;;;;18.02;10.75;;;;;;;;;;5094500;28;20069;-72
2022/03/16 04:31:10;;;;;;;23.85;11.30;;;;;;;;;;5094941;28;20023;-72
2022/03/16 04:33:37;;;;;;;25.45;11.48;;;;;;;;;;5093913;28;20058;-71
2022/03/16 04:36:03;;;;;;;22.13;10.48;;;;;;;;;;5076186;28;20080;-73
2022/03/16 04:38:30;;;;;;;20.23;10.77;;;;;;;;;;5094376;28;20031;-71
2022/03/16 04:40:56;;;;;;;17.35;9.65;;;;;;;;;;5093862;28;20059;-71
2022/03/16 04:43:22;;;;;;;17.88;9.90;;;;;;;;;;5076125;28;20054;-72
2022/03/16 04:45:48;;;;;;;18.00;10.95;;;;;;;;;;5094430;28;20027;-72
2022/03/16 04:48:15;;;;;;;16.60;9.80;;;;;;;;;;5075883;28;20031;-72
2022/03/16 04:50:41;;;;;;;21.90;10.75;;;;;;;;;;5094040;28;20028;-72
2022/03/16 04:53:08;;;;;;;20.02;9.43;;;;;;;;;;5094063;28;20024;-72
2022/03/16 04:55:37;;;;;;;19.88;10.88;;;;;;;;;;5093828;28;20055;-72
2022/03/16 04:58:07;;;;;;;32.17;15.32;;;;;;;;;;5093968;28;20023;-72
2022/03/16 05:00:35;;;;;;;46.10;21.30;;;;;;;;;;5093917;28;20150;-72
2022/03/16 05:03:01;;;;;;;32.63;18.63;;;;;;;;;;5093527;28;20045;-72
2022/03/16 05:05:28;;;;;;;36.50;16.40;;;;;;;;;;5075691;28;20106;-71
2022/03/16 05:07:55;;;;;;;31.70;14.85;;;;;;;;;;5094071;28;20024;-72
2022/03/16 05:10:21;;;;;;;28.13;15.63;;;;;;;;;;5093397;28;20020;-72
2022/03/16 05:12:48;;;;;;;28.15;14.30;;;;;;;;;;5094000;28;20024;-72
2022/03/16 05:15:15;;;;;;;21.10;11.20;;;;;;;;;;5093332;28;20370;-72
2022/03/16 05:17:41;;;;;;;20.35;10.60;;;;;;;;;;5075527;28;20027;-73
2022/03/16 05:20:08;;;;;;;21.83;10.63;;;;;;;;;;5093602;28;20055;-71
2022/03/16 05:22:48;;;;;;;18.15;9.32;;;;;;;;;;5093152;28;20024;-70
2022/03/16 05:25:15;;;;;;;16.17;9.32;;;;;;;;;;5075453;28;20028;-71
2022/03/16 05:27:41;;;;;;;12.25;6.90;;;;;;;;;;5093476;28;20032;-71
2022/03/16 05:30:08;;;;;;;14.55;8.77;;;;;;;;;;5074736;28;20036;-71
2022/03/16 05:32:35;;;;;;;15.27;8.60;;;;;;;;;;5093465;28;20027;-71
2022/03/16 05:35:01;;;;;;;18.95;9.48;;;;;;;;;;5093118;28;20056;-71
2022/03/16 05:37:27;;;;;;;20.88;12.75;;;;;;;;;;5093265;28;20032;-71
2022/03/16 05:39:53;;;;;;;82.03;37.15;;;;;;;;;;5093457;28;20024;-71
2022/03/16 05:42:20;;;;;;;125.03;61.90;;;;;;;;;;5093459;28;20023;-73
2022/03/16 05:44:46;;;;;;;104.55;56.38;;;;;;;;;;5092968;28;20433;-72
2022/03/16 05:47:12;;;;;;;163.40;87.15;;;;;;;;;;5093315;28;20028;-71
2022/03/16 05:49:39;;;;;;;152.30;78.57;;;;;;;;;;5075185;28;20042;-72
2022/03/16 05:52:06;;;;;;;126.85;68.15;;;;;;;;;;5074709;28;20016;-71
2022/03/16 05:54:33;;;;;;;95.40;54.22;;;;;;;;;;5093224;28;20032;-72
2022/03/16 05:56:59;;;;;;;66.85;36.13;;;;;;;;;;5093265;28;20017;-72
2022/03/16 05:59:25;;;;;;;64.95;33.65;;;;;;;;;;5092884;28;20035;-72
2022/03/16 06:01:52;;;;;;;45.08;26.67;;;;;;;;;;5093247;28;20024;-71
2022/03/16 06:04:19;;;;;;;48.80;24.55;;;;;;;;;;5093233;28;20100;-71
2022/03/16 06:06:45;;;;;;;49.85;28.50;;;;;;;;;;5089795;28;20052;-71
2022/03/16 06:09:11;;;;;;;48.17;22.55;;;;;;;;;;5091339;28;20035;-70
2022/03/16 06:11:39;;;;;;;38.72;20.63;;;;;;;;;;5093374;28;20024;-71
2022/03/16 06:14:05;;;;;;;38.85;19.60;;;;;;;;;;5111868;28;20020;-71
2022/03/16 06:16:31;;;;;;;33.67;18.55;;;;;;;;;;5111800;28;20023;-72
2022/03/16 06:18:58;;;;;;;31.48;19.65;;;;;;;;;;5112614;28;20027;-73
2022/03/16 06:21:24;;;;;;;34.05;19.02;;;;;;;;;;5112915;28;20035;-72
2022/03/16 06:23:50;;;;;;;38.05;19.60;;;;;;;;;;5111985;28;20425;-71
2022/03/16 06:26:16;;;;;;;43.80;21.60;;;;;;;;;;5084114;28;20036;-71
2022/03/16 06:28:42;;;;;;;55.67;30.88;;;;;;;;;;5071190;28;20024;-71
2022/03/16 06:31:09;;;;;;;53.83;31.67;;;;;;;;;;5080798;28;20361;-75
2022/03/16 06:33:35;;;;;;;92.60;43.55;;;;;;;;;;5078833;28;20032;-72
2022/03/16 06:36:01;;;;;;;82.43;42.60;;;;;;;;;;5091770;28;20020;-74
2022/03/16 06:38:28;;;;;;;71.22;38.75;;;;;;;;;;5090459;28;20103;-75
2022/03/16 06:40:54;;;;;;;64.65;36.05;;;;;;;;;;5090683;28;20028;-75
2022/03/16 06:43:21;;;;;;;71.32;37.90;;;;;;;;;;5093526;28;20594;-71
2022/03/16 06:45:47;;;;;;;57.40;35.03;;;;;;;;;;5074008;28;20024;-73
2022/03/16 06:48:14;;;;;;;49.13;29.00;;;;;;;;;;5094382;28;20081;-73
2022/03/16 06:50:40;;;;;;;50.45;25.60;;;;;;;;;;5095157;28;20028;-71
2022/03/16 06:53:06;;;;;;;56.53;28.55;;;;;;;;;;5093134;28;20019;-72
2022/03/16 06:55:32;;;;;;;37.85;18.70;;;;;;;;;;5093739;28;20028;-72
2022/03/16 06:57:59;;;;;;;29.85;15.48;;;;;;;;;;5077122;28;20031;-72
2022/03/16 07:00:25;;;;;;;35.63;17.25;;;;;;;;;;5095131;28;20488;-72
2022/03/16 07:02:52;;;;;;;36.13;14.60;;;;;;;;;;5076557;28;20410;-72
2022/03/16 07:05:19;;;;;;;28.50;14.43;;;;;;;;;;5095553;28;20028;-72
2022/03/16 07:07:45;;;;;;;24.08;13.45;;;;;;;;;;5095280;28;20431;-72
2022/03/16 07:10:11;;;;;;;15.38;10.02;;;;;;;;;;5094847;28;20051;-71
2022/03/16 07:12:37;;;;;;;18.95;9.48;;;;;;;;;;5095600;28;20077;-73
2022/03/16 07:15:06;;;;;;;16.80;9.40;;;;;;;;;;5094039;28;20036;-72
2022/03/16 07:17:32;;;;;;;19.60;9.10;;;;;;;;;;5095599;28;20133;-69
2022/03/16 07:19:58;;;;;;;22.25;10.27;;;;;;;;;;5091192;28;20377;-69
2022/03/16 07:22:24;;;;;;;19.20;9.82;;;;;;;;;;5107486;28;20031;-69
2022/03/16 07:24:51;;;;;;;16.77;8.80;;;;;;;;;;5115392;28;20020;-71
2022/03/16 07:27:17;;;;;;;15.02;9.68;;;;;;;;;;5095370;28;20028;-72
2022/03/16 07:29:43;;;;;;;21.20;12.40;;;;;;;;;;5095758;28;20504;-73
2022/03/16 07:32:09;;;;;;;56.92;32.15;;;;;;;;;;5114082;28;20057;-71
2022/03/16 07:34:35;;;;;;;37.83;22.50;;;;;;;;;;5096235;28;20130;-72
2022/03/16 07:37:02;;;;;;;37.28;19.40;;;;;;;;;;5114380;28;20511;-71
2022/03/16 07:39:28;;;;;;;32.17;19.35;;;;;;;;;;5113523;28;20765;-70
2022/03/16 07:41:54;;;;;;;44.90;25.77;;;;;;;;;;5094493;28;20156;-72
2022/03/16 07:44:20;;;;;;;26.27;17.63;;;;;;;;;;5112585;28;20507;-71
2022/03/16 07:46:47;;;;;;;32.17;18.02;;;;;;;;;;5094545;28;20034;-70
2022/03/16 07:49:13;;;;;;;20.85;12.32;;;;;;;;;;5113608;28;20476;-69
2022/03/16 07:51:39;;;;;;;25.80;16.30;;;;;;;;;;5113194;28;20104;-72
2022/03/16 07:54:05;;;;;;;23.17;15.02;;;;;;;;;;5093993;28;20030;-72
2022/03/16 07:56:32;;;;;;;31.40;16.80;;;;;;;;;;5111968;28;20055;-72
2022/03/16 07:59:01;;;;;;;39.03;19.10;;;;;;;;;;5112379;28;20016;-70
2022/03/16 08:01:28;;;;;;;81.22;42.28;;;;;;;;;;5093838;28;20106;-74
2022/03/16 08:03:54;;;;;;;41.80;22.40;;;;;;;;;;5093813;28;20031;-70
2022/03/16 08:06:20;;;;;;;24.08;14.27;;;;;;;;;;5094053;28;20029;-72
2022/03/16 08:08:47;;;;;;;24.08;13.20;;;;;;;;;;5094490;28;20055;-71
2022/03/16 08:11:13;;;;;;;22.60;12.52;;;;;;;;;;5095556;28;20023;-70
2022/03/16 08:13:39;;;;;;;29.13;14.73;;;;;;;;;;5114444;28;20027;-72
2022/03/16 08:16:05;;;;;;;24.08;14.60;;;;;;;;;;5077022;28;20136;-73
2022/03/16 08:18:32;;;;;;;19.20;11.57;;;;;;;;;;5073408;28;20036;-74
2022/03/16 08:20:58;;;;;;;17.13;10.15;;;;;;;;;;5082489;28;20024;-73
2022/03/16 08:23:24;;;;;;;17.73;10.05;;;;;;;;;;5075368;28;20379;-71
2022/03/16 08:25:51;;;;;;;17.48;9.30;;;;;;;;;;5075319;28;20024;-75
2022/03/16 08:28:17;;;;;;;75.05;39.88;;;;;;;;;;5093698;28;20095;-69
2022/03/16 08:30:43;;;;;;;39.13;22.13;;;;;;;;;;5093731;28;20016;-68
2022/03/16 08:33:10;;;;;;;27.02;16.35;;;;;;;;;;5093235;28;20035;-71
2022/03/16 08:35:36;;;;;;;16.02;9.63;;;;;;;;;;5075691;28;20428;-75
2022/03/16 08:38:02;;;;;;;16.90;9.90;;;;;;;;;;5074024;28;20109;-70
2022/03/16 08:40:28;;;;;;;23.58;11.57;;;;;;;;;;5093149;28;20495;-71
2022/03/16 08:42:55;;;;;;;24.08;13.55;;;;;;;;;;5093285;28;20031;-70
2022/03/16 08:45:21;;;;;;;19.60;12.07;;;;;;;;;;5093270;28;20054;-71
2022/03/16 08:47:47;;;;;;;18.88;10.48;;;;;;;;;;5074343;28;20031;-72
2022/03/16 08:50:13;;;;;;;13.48;8.50;;;;;;;;;;5092851;28;20488;-72
2022/03/16 08:52:40;;;;;;;40.92;22.42;;;;;;;;;;5093246;28;20380;-73
2022/03/16 08:55:06;;;;;;;19.98;11.68;;;;;;;;;;5092978;28;20119;-71
2022/03/16 08:57:33;;;;;;;21.13;12.13;;;;;;;;;;5074964;28;20047;-74
2022/03/16 08:59:59;;;;;;;24.20;13.63;;;;;;;;;;5074427;28;20518;-75
2022/03/16 09:02:26;;;;;;;26.98;17.58;;;;;;;;;;5074121;28;20374;-73
2022/03/16 09:04:52;;;;;;;16.15;10.38;;;;;;;;;;5091905;28;20154;-71
2022/03/16 09:07:18;;;;;;;21.13;14.73;;;;;;;;;;5091304;28;20024;-68
2022/03/16 09:09:45;;;;;;;18.05;10.63;;;;;;;;;;5092008;28;20035;-71
2022/03/16 09:12:11;;;;;;;22.95;14.40;;;;;;;;;;5092630;28;20021;-71
2022/03/16 09:14:38;;;;;;;21.98;12.95;;;;;;;;;;5090223;28;20028;-70
2022/03/16 09:17:05;;;;;;;16.92;10.18;;;;;;;;;;5091155;28;20024;-71
2022/03/16 09:21:02;;;;;;;16.92;8.95;;;;;;;;;;5069591;28;20418;-72
2022/03/16 09:23:31;;;;;;;14.27;8.68;;;;;;;;;;5069001;28;20032;-71
2022/03/16 09:26:00;;;;;;;19.13;10.13;;;;;;;;;;5052411;28;20033;-72
2022/03/16 09:30:00;;;;;;;14.02;8.70;;;;;;;;;;5067614;28;20383;-71
2022/03/16 09:32:27;;;;;;;16.30;9.48;;;;;;;;;;5068251;28;20107;-71
2022/03/16 09:34:53;;;;;;;13.68;8.43;;;;;;;;;;5067195;28;20028;-70
2022/03/16 09:39:14;;;;;;;15.82;9.50;;;;;;;;;;5109753;27;20388;-68
2022/03/16 09:41:40;;;;;;;22.00;12.70;;;;;;;;;;5106129;28;20034;-70
2022/03/16 09:45:56;;;;;;;19.02;10.68;;;;;;;;;;5143910;27;20384;-72
2022/03/16 09:48:35;;;;;;;14.70;8.55;;;;;;;;;;5110622;27;20446;-71
2022/03/16 09:51:02;;;;;;;15.55;8.25;;;;;;;;;;5107211;28;20028;-75
2022/03/16 09:53:28;;;;;;;20.40;9.32;;;;;;;;;;5107085;28;20020;-71
2022/03/16 09:55:55;;;;;;;15.60;8.60;;;;;;;;;;5094446;28;20035;-70
2022/03/16 09:58:21;;;;;;;13.73;7.60;;;;;;;;;;5089399;28;20020;-70
2022/03/16 10:00:48;;;;;;;15.57;7.72;;;;;;;;;;5088324;28;20024;-71
2022/03/16 10:04:30;;;;;;;14.25;9.40;;;;;;;;;;5066510;28;20420;-72
2022/03/16 10:14:16;;;;;;;18.70;7.55;;;;;;;;;;5068350;28;20082;-73
2022/03/16 10:18:18;;;;;;;13.48;7.47;;;;;;;;;;5065195;27;20465;-73
2022/03/16 10:20:44;;;;;;;10.95;6.65;;;;;;;;;;5067856;28;20028;-74
2022/03/16 10:23:18;;;;;;;15.18;10.18;;;;;;;;;;5069105;28;20099;-75
2022/03/16 10:25:46;;;;;;;13.25;7.85;;;;;;;;;;5068272;28;20095;-74
2022/03/16 10:29:15;;;;;;;16.25;8.70;;;;;;;;;;5070158;28;20411;-73
2022/03/16 10:31:42;;;;;;;16.65;9.30;;;;;;;;;;5069789;28;20021;-74
2022/03/16 10:34:09;;;;;;;16.35;9.10;;;;;;;;;;5067633;28;20032;-72
2022/03/16 10:36:39;;;;;;;13.18;8.07;;;;;;;;;;5066826;28;20029;-72
2022/03/16 10:39:05;;;;;;;21.15;11.93;;;;;;;;;;5067715;28;20496;-74
2022/03/16 10:48:24;;;;;;;17.50;9.30;;;;;;;;;;5110168;27;20385;-72
2022/03/16 10:50:56;;;;;;;13.57;9.10;;;;;;;;;;5109609;28;20027;-70
2022/03/16 10:53:29;;;;;;;16.92;10.88;;;;;;;;;;5123626;28;20480;-72
2022/03/16 10:55:56;;;;;;;18.52;11.45;;;;;;;;;;5109213;28;20051;-71
2022/03/16 10:58:24;;;;;;;18.48;9.05;;;;;;;;;;5109726;28;20030;-70
2022/03/16 11:00:52;;;;;;;19.27;10.07;;;;;;;;;;5123206;28;20116;-71
2022/03/16 11:06:00;;;;;;;32.50;19.35;;;;;;;;;;5067614;28;20456;-68
2022/03/16 11:08:26;;;;;;;16.52;10.07;;;;;;;;;;5068945;28;20497;-71
2022/03/16 11:10:53;;;;;;;12.63;7.63;;;;;;;;;;5068351;28;20112;-70
2022/03/16 11:13:28;;;;;;;12.63;6.30;;;;;;;;;;5069946;28;20025;-70
2022/03/16 11:15:55;;;;;;;13.07;7.10;;;;;;;;;;5069420;28;20362;-73
2022/03/16 11:19:48;;;;;;;10.30;6.65;;;;;;;;;;5069689;28;20473;-75
2022/03/16 11:26:49;;;;;;;14.77;8.55;;;;;;;;;;5110786;28;20108;-73
2022/03/16 11:29:18;;;;;;;12.60;7.50;;;;;;;;;;5089953;28;20019;-72
2022/03/16 11:34:00;;;;;;;14.05;10.02;;;;;;;;;;5110303;27;20384;-72
2022/03/16 11:43:43;;;;;;;12.73;7.18;;;;;;;;;;5110275;27;20968;-73
2022/03/16 11:46:27;;;;;;;12.93;7.55;;;;;;;;;;5109121;28;20392;-72
2022/03/16 11:48:56;;;;;;;13.95;8.15;;;;;;;;;;5109789;28;20028;-73
2022/03/16 11:51:26;;;;;;;15.40;8.43;;;;;;;;;;5106355;28;20016;-72
2022/03/16 11:56:29;;;;;;;11.73;7.25;;;;;;;;;;5109772;28;20026;-73
2022/03/16 11:59:06;;;;;;;12.27;6.95;;;;;;;;;;5108351;28;20023;-73
2022/03/16 12:02:22;;;;;;;10.38;6.82;;;;;;;;;;5109498;27;20393;-72
2022/03/16 12:05:59;;;;;;;10.73;7.05;;;;;;;;;;5069484;28;20429;-71
2022/03/16 12:08:30;;;;;;;12.88;7.53;;;;;;;;;;5070040;28;20079;-73
2022/03/16 12:15:19;;;;;;;15.00;8.30;;;;;;;;;;5108576;27;20408;-70
2022/03/16 12:21:26;;;;;;;15.27;8.75;;;;;;;;;;5068802;28;20395;-71
2022/03/16 12:23:57;;;;;;;13.45;8.00;;;;;;;;;;5069294;28;20508;-72
2022/03/16 12:26:25;;;;;;;15.25;6.85;;;;;;;;;;5068503;28;20021;-73
2022/03/16 12:33:22;;;;;;;19.70;12.63;;;;;;;;;;5162512;27;20489;-72
2022/03/16 12:35:54;;;;;;;17.83;10.18;;;;;;;;;;5149251;27;20386;-72
2022/03/16 12:38:21;;;;;;;14.00;6.85;;;;;;;;;;5151510;27;20019;-72
2022/03/16 12:43:34;;;;;;;15.00;7.63;;;;;;;;;;5147902;27;20033;-73
2022/03/16 12:46:20;;;;;;;11.02;6.13;;;;;;;;;;5108339;27;20426;-76
2022/03/16 12:51:18;;;;;;;11.85;7.85;;;;;;;;;;5111401;27;20419;-72
2022/03/16 12:54:26;;;;;;;12.40;6.55;;;;;;;;;;5101924;27;20487;-74
2022/03/16 12:58:32;;;;;;;12.07;6.38;;;;;;;;;;5111077;27;20316;-72
2022/03/16 13:02:01;;;;;;;14.48;7.88;;;;;;;;;;5110747;27;20392;-72
2022/03/16 13:04:28;;;;;;;11.20;6.85;;;;;;;;;;5109494;28;20496;-69
2022/03/16 13:06:56;;;;;;;11.30;6.45;;;;;;;;;;5110859;28;20028;-71
2022/03/16 13:12:07;;;;;;;16.45;8.90;;;;;;;;;;5090560;27;20402;-72
2022/03/16 13:14:36;;;;;;;9.63;5.50;;;;;;;;;;5090073;28;20465;-73
2022/03/16 13:18:43;;;;;;;11.20;5.28;;;;;;;;;;5070911;28;20425;-72
2022/03/16 13:22:47;;;;;;;16.88;6.57;;;;;;;;;;5131127;27;20376;-72
2022/03/16 13:25:14;;;;;;;15.10;5.97;;;;;;;;;;5131567;28;20054;-69
2022/03/16 13:27:40;;;;;;;10.57;5.25;;;;;;;;;;5130931;28;20023;-70
2022/03/16 13:30:49;;;;;;;13.65;7.75;;;;;;;;;;5111247;27;20442;-71
2022/03/16 13:33:16;;;;;;;12.48;6.07;;;;;;;;;;5109974;28;20037;-71
2022/03/16 13:35:42;;;;;;;10.68;5.43;;;;;;;;;;5109942;28;20020;-72
2022/03/16 13:38:08;;;;;;;13.48;5.78;;;;;;;;;;5109742;28;20020;-72
2022/03/16 13:42:42;;;;;;;10.00;5.43;;;;;;;;;;5070064;28;20419;-72
2022/03/16 13:45:13;;;;;;;9.38;5.10;;;;;;;;;;5070508;28;20028;-71
2022/03/16 13:47:40;;;;;;;8.98;5.00;;;;;;;;;;5070431;28;20017;-70
2022/03/16 13:50:06;;;;;;;11.73;6.18;;;;;;;;;;5070137;28;20413;-71
2022/03/16 13:52:40;;;;;;;13.82;6.10;;;;;;;;;;5070306;28;20025;-69
2022/03/16 13:55:14;;;;;;;13.40;5.75;;;;;;;;;;5069933;28;20499;-69
2022/03/16 13:57:46;;;;;;;10.65;5.60;;;;;;;;;;5069819;28;20037;-70
2022/03/16 14:00:13;;;;;;;16.80;10.43;;;;;;;;;;5067862;28;20508;-69
2022/03/16 14:02:40;;;;;;;16.63;9.45;;;;;;;;;;5069105;28;20489;-69
2022/03/16 14:05:16;;;;;;;12.02;6.63;;;;;;;;;;5069430;28;20025;-69
2022/03/16 14:07:44;;;;;;;12.27;6.90;;;;;;;;;;5069823;28;20031;-69
2022/03/16 14:13:12;;;;;;;15.20;7.47;;;;;;;;;;5068593;27;20395;-67
2022/03/16 14:15:39;;;;;;;12.50;7.50;;;;;;;;;;5070273;28;20025;-68
2022/03/16 14:18:11;;;;;;;12.68;8.60;;;;;;;;;;5070138;28;20412;-69
2022/03/16 14:20:39;;;;;;;10.35;5.50;;;;;;;;;;5069217;28;20427;-70
2022/03/16 14:24:50;;;;;;;9.88;5.75;;;;;;;;;;5070499;28;20453;-68
2022/03/16 14:27:16;;;;;;;11.35;5.60;;;;;;;;;;5069626;28;20052;-69
2022/03/16 14:29:45;;;;;;;10.02;4.93;;;;;;;;;;5070561;28;20481;-69
2022/03/16 14:32:12;;;;;;;11.90;6.25;;;;;;;;;;5070103;28;20017;-69
2022/03/16 14:36:02;;;;;;;13.52;6.80;;;;;;;;;;5111908;27;20408;-68
2022/03/16 14:38:28;;;;;;;30.95;15.35;;;;;;;;;;5126506;28;20082;-70
2022/03/16 14:42:57;;;;;;;10.20;6.65;;;;;;;;;;5111583;27;20310;-70
2022/03/16 14:47:30;;;;;;;11.35;6.55;;;;;;;;;;5111162;27;20992;-70
2022/03/16 14:49:58;;;;;;;16.13;10.13;;;;;;;;;;5111179;28;20028;-69
2022/03/16 14:52:25;;;;;;;10.43;6.03;;;;;;;;;;5110926;28;20016;-70
2022/03/16 14:54:51;;;;;;;13.02;6.97;;;;;;;;;;5111094;28;20020;-70
2022/03/16 14:57:19;;;;;;;13.13;7.82;;;;;;;;;;5109738;28;20051;-71
2022/03/16 14:59:45;;;;;;;11.55;7.30;;;;;;;;;;5110714;28;20027;-70
2022/03/16 15:05:26;;;;;;;16.00;8.13;;;;;;;;;;5111119;27;20396;-67
2022/03/16 15:08:35;;;;;;;14.35;7.60;;;;;;;;;;5070639;28;20391;-67
2022/03/16 15:11:01;;;;;;;8.85;5.85;;;;;;;;;;5070737;28;20481;-70
2022/03/16 15:13:27;;;;;;;12.18;6.88;;;;;;;;;;5070091;28;20035;-69
2022/03/16 15:15:53;;;;;;;10.88;5.78;;;;;;;;;;5069249;28;20430;-69
2022/03/16 15:19:48;;;;;;;16.63;10.80;;;;;;;;;;5070846;28;20380;-67
2022/03/16 15:22:15;;;;;;;16.48;8.80;;;;;;;;;;5070209;28;20055;-70
2022/03/16 15:24:41;;;;;;;17.20;10.43;;;;;;;;;;5068443;28;20025;-67
2022/03/16 15:27:07;;;;;;;15.10;8.52;;;;;;;;;;5070805;28;20056;-69
2022/03/16 15:29:35;;;;;;;12.73;7.47;;;;;;;;;;5070699;28;20025;-69
2022/03/16 15:32:13;;;;;;;11.80;5.35;;;;;;;;;;5111252;27;20389;-69
2022/03/16 15:34:56;;;;;;;13.27;5.78;;;;;;;;;;5070573;28;20387;-69
2022/03/16 15:37:23;;;;;;;36.95;18.02;;;;;;;;;;5070623;28;20029;-68
2022/03/16 15:42:46;;;;;;;13.95;8.30;;;;;;;;;;5070344;28;20094;-67
2022/03/16 15:45:13;;;;;;;17.10;9.98;;;;;;;;;;5069036;28;20047;-69
2022/03/16 15:47:40;;;;;;;11.70;8.07;;;;;;;;;;5070321;28;20452;-68
2022/03/16 15:53:03;;;;;;;20.27;11.45;;;;;;;;;;5131621;27;20820;-69
2022/03/16 15:57:24;;;;;;;21.38;11.43;;;;;;;;;;5110815;27;20461;-68
2022/03/16 15:59:50;;;;;;;24.60;12.73;;;;;;;;;;5109737;28;20089;-69
2022/03/16 16:06:27;;;;;;;41.35;24.75;;;;;;;;;;5071251;28;20391;-68
2022/03/16 16:09:04;;;;;;;41.58;25.02;;;;;;;;;;5111784;27;20582;-67